sensor_id;sensor_type;location;lat;lon;timestamp;P1;durP1;ratioP1;P2;durP2;ratioP2
18973;SDS011;9621;48.690;9.466;2023-01-01T00:01:28;473.50;;;294.37;;
18973;SDS011;9621;48.690;9.466;2023-01-01T00:03:56;434.47;;;263.10;;
18973;SDS011;9621;48.690;9.466;2023-01-01T00:06:24;437.07;;;267.73;;
18973;SDS011;9621;48.690;9.466;2023-01-01T00:08:52;359.70;;;207.27;;
18973;SDS011;9621;48.690;9.466;2023-01-01T00:11:38;223.97;;;136.90;;
18973;SDS011;9621;48.690;9.466;2023-01-01T00:14:06;135.33;;;82.47;;
18973;SDS011;9621;48.690;9.466;2023-01-01T00:16:33;163.37;;;99.80;;
18973;SDS011;9621;48.690;9.466;2023-01-01T00:19:00;163.57;;;99.83;;
18973;SDS011;9621;48.690;9.466;2023-01-01T00:21:28;147.67;;;89.93;;
18973;SDS011;9621;48.690;9.466;2023-01-01T00:23:55;160.20;;;99.73;;
18973;SDS011;9621;48.690;9.466;2023-01-01T00:26:22;210.00;;;127.47;;
18973;SDS011;9621;48.690;9.466;2023-01-01T00:28:49;289.73;;;161.13;;
18973;SDS011;9621;48.690;9.466;2023-01-01T00:31:18;308.20;;;174.57;;
18973;SDS011;9621;48.690;9.466;2023-01-01T00:33:49;351.73;;;194.23;;
18973;SDS011;9621;48.690;9.466;2023-01-01T00:36:17;323.13;;;184.47;;
18973;SDS011;9621;48.690;9.466;2023-01-01T00:38:45;254.70;;;146.23;;
18973;SDS011;9621;48.690;9.466;2023-01-01T00:41:14;192.33;;;112.20;;
18973;SDS011;9621;48.690;9.466;2023-01-01T00:43:41;178.40;;;107.80;;
18973;SDS011;9621;48.690;9.466;2023-01-01T00:46:09;234.27;;;130.40;;
18973;SDS011;9621;48.690;9.466;2023-01-01T00:48:38;157.53;;;96.20;;
18973;SDS011;9621;48.690;9.466;2023-01-01T00:51:05;153.83;;;87.57;;
18973;SDS011;9621;48.690;9.466;2023-01-01T00:53:32;151.93;;;88.03;;
18973;SDS011;9621;48.690;9.466;2023-01-01T00:56:00;239.00;;;128.07;;
18973;SDS011;9621;48.690;9.466;2023-01-01T00:58:27;240.10;;;133.67;;
18973;SDS011;9621;48.690;9.466;2023-01-01T01:00:54;224.90;;;128.73;;
18973;SDS011;9621;48.690;9.466;2023-01-01T01:03:21;215.60;;;124.80;;
18973;SDS011;9621;48.690;9.466;2023-01-01T01:05:57;200.33;;;120.17;;
18973;SDS011;9621;48.690;9.466;2023-01-01T01:08:25;196.23;;;115.40;;
18973;SDS011;9621;48.690;9.466;2023-01-01T01:10:53;259.37;;;145.37;;
18973;SDS011;9621;48.690;9.466;2023-01-01T01:13:23;350.23;;;204.10;;
18973;SDS011;9621;48.690;9.466;2023-01-01T01:15:53;349.90;;;201.50;;
18973;SDS011;9621;48.690;9.466;2023-01-01T01:18:20;321.50;;;183.57;;
18973;SDS011;9621;48.690;9.466;2023-01-01T01:20:50;272.27;;;157.13;;
18973;SDS011;9621;48.690;9.466;2023-01-01T01:23:20;288.17;;;164.63;;
18973;SDS011;9621;48.690;9.466;2023-01-01T01:25:47;310.40;;;172.90;;
18973;SDS011;9621;48.690;9.466;2023-01-01T01:28:14;311.17;;;177.83;;
18973;SDS011;9621;48.690;9.466;2023-01-01T01:30:44;291.80;;;168.37;;
18973;SDS011;9621;48.690;9.466;2023-01-01T01:33:11;285.30;;;158.23;;
18973;SDS011;9621;48.690;9.466;2023-01-01T01:35:38;273.37;;;153.90;;
18973;SDS011;9621;48.690;9.466;2023-01-01T01:38:09;195.80;;;117.37;;
18973;SDS011;9621;48.690;9.466;2023-01-01T01:40:37;159.83;;;94.97;;
18973;SDS011;9621;48.690;9.466;2023-01-01T01:43:10;213.60;;;122.93;;
18973;SDS011;9621;48.690;9.466;2023-01-01T01:45:44;239.60;;;135.23;;
18973;SDS011;9621;48.690;9.466;2023-01-01T01:48:19;197.93;;;115.47;;
18973;SDS011;9621;48.690;9.466;2023-01-01T01:50:49;176.33;;;107.97;;
18973;SDS011;9621;48.690;9.466;2023-01-01T01:53:20;190.37;;;112.33;;
18973;SDS011;9621;48.690;9.466;2023-01-01T01:55:52;269.17;;;150.00;;
18973;SDS011;9621;48.690;9.466;2023-01-01T01:58:23;253.37;;;138.07;;
18973;SDS011;9621;48.690;9.466;2023-01-01T02:00:54;216.27;;;121.53;;
18973;SDS011;9621;48.690;9.466;2023-01-01T02:03:21;255.13;;;145.23;;
18973;SDS011;9621;48.690;9.466;2023-01-01T02:05:52;295.80;;;162.27;;
18973;SDS011;9621;48.690;9.466;2023-01-01T02:08:20;295.90;;;163.10;;
18973;SDS011;9621;48.690;9.466;2023-01-01T02:10:47;285.90;;;162.93;;
18973;SDS011;9621;48.690;9.466;2023-01-01T02:13:15;301.23;;;164.97;;
18973;SDS011;9621;48.690;9.466;2023-01-01T02:15:47;291.20;;;159.83;;
18973;SDS011;9621;48.690;9.466;2023-01-01T02:18:18;292.80;;;166.27;;
18973;SDS011;9621;48.690;9.466;2023-01-01T02:20:51;285.47;;;160.40;;
18973;SDS011;9621;48.690;9.466;2023-01-01T02:23:43;315.63;;;176.10;;
18973;SDS011;9621;48.690;9.466;2023-01-01T02:26:36;370.20;;;207.47;;
18973;SDS011;9621;48.690;9.466;2023-01-01T02:29:15;362.27;;;198.60;;
18973;SDS011;9621;48.690;9.466;2023-01-01T02:31:53;343.63;;;188.60;;
18973;SDS011;9621;48.690;9.466;2023-01-01T02:34:26;314.73;;;167.97;;
18973;SDS011;9621;48.690;9.466;2023-01-01T02:37:00;207.70;;;118.53;;
18973;SDS011;9621;48.690;9.466;2023-01-01T02:39:31;218.07;;;122.40;;
18973;SDS011;9621;48.690;9.466;2023-01-01T02:42:01;250.53;;;138.57;;
18973;SDS011;9621;48.690;9.466;2023-01-01T02:44:33;229.37;;;128.03;;
18973;SDS011;9621;48.690;9.466;2023-01-01T02:47:07;212.80;;;119.47;;
18973;SDS011;9621;48.690;9.466;2023-01-01T02:49:40;170.40;;;100.13;;
18973;SDS011;9621;48.690;9.466;2023-01-01T02:52:18;171.00;;;95.20;;
18973;SDS011;9621;48.690;9.466;2023-01-01T02:54:58;207.13;;;116.67;;
18973;SDS011;9621;48.690;9.466;2023-01-01T02:57:32;272.17;;;144.47;;
18973;SDS011;9621;48.690;9.466;2023-01-01T03:00:11;277.13;;;145.80;;
18973;SDS011;9621;48.690;9.466;2023-01-01T03:02:55;282.77;;;147.90;;
18973;SDS011;9621;48.690;9.466;2023-01-01T03:05:33;284.57;;;152.37;;
18973;SDS011;9621;48.690;9.466;2023-01-01T03:08:20;246.57;;;136.90;;
18973;SDS011;9621;48.690;9.466;2023-01-01T03:11:01;192.87;;;110.83;;
18973;SDS011;9621;48.690;9.466;2023-01-01T03:13:38;195.90;;;110.37;;
18973;SDS011;9621;48.690;9.466;2023-01-01T03:16:13;193.40;;;111.87;;
18973;SDS011;9621;48.690;9.466;2023-01-01T03:18:46;197.80;;;111.07;;
18973;SDS011;9621;48.690;9.466;2023-01-01T03:21:35;223.97;;;123.47;;
18973;SDS011;9621;48.690;9.466;2023-01-01T03:24:11;189.07;;;104.77;;
18973;SDS011;9621;48.690;9.466;2023-01-01T03:26:47;178.80;;;99.47;;
18973;SDS011;9621;48.690;9.466;2023-01-01T03:29:19;187.30;;;104.50;;
18973;SDS011;9621;48.690;9.466;2023-01-01T03:31:50;188.13;;;104.70;;
18973;SDS011;9621;48.690;9.466;2023-01-01T03:34:29;182.50;;;103.50;;
18973;SDS011;9621;48.690;9.466;2023-01-01T03:37:03;172.07;;;100.40;;
18973;SDS011;9621;48.690;9.466;2023-01-01T03:39:33;171.00;;;100.47;;
18973;SDS011;9621;48.690;9.466;2023-01-01T03:42:07;188.17;;;107.20;;
18973;SDS011;9621;48.690;9.466;2023-01-01T03:44:46;184.83;;;109.27;;
18973;SDS011;9621;48.690;9.466;2023-01-01T03:47:28;167.90;;;97.77;;
18973;SDS011;9621;48.690;9.466;2023-01-01T03:50:05;180.10;;;104.47;;
18973;SDS011;9621;48.690;9.466;2023-01-01T03:52:37;196.20;;;112.17;;
18973;SDS011;9621;48.690;9.466;2023-01-01T03:55:18;207.27;;;117.33;;
18973;SDS011;9621;48.690;9.466;2023-01-01T03:58:00;205.07;;;115.50;;
18973;SDS011;9621;48.690;9.466;2023-01-01T04:00:30;207.47;;;115.50;;
18973;SDS011;9621;48.690;9.466;2023-01-01T04:03:04;208.00;;;113.07;;
18973;SDS011;9621;48.690;9.466;2023-01-01T04:05:34;201.40;;;113.33;;
18973;SDS011;9621;48.690;9.466;2023-01-01T04:08:02;194.33;;;113.23;;
18973;SDS011;9621;48.690;9.466;2023-01-01T04:10:34;197.20;;;108.50;;
18973;SDS011;9621;48.690;9.466;2023-01-01T04:13:14;193.57;;;110.00;;
18973;SDS011;9621;48.690;9.466;2023-01-01T04:15:40;185.57;;;105.20;;
18973;SDS011;9621;48.690;9.466;2023-01-01T04:18:09;185.40;;;102.90;;
18973;SDS011;9621;48.690;9.466;2023-01-01T04:20:36;188.37;;;105.97;;
18973;SDS011;9621;48.690;9.466;2023-01-01T04:23:03;181.97;;;105.27;;
18973;SDS011;9621;48.690;9.466;2023-01-01T04:25:33;173.30;;;102.03;;
18973;SDS011;9621;48.690;9.466;2023-01-01T04:28:01;192.30;;;103.13;;
18973;SDS011;9621;48.690;9.466;2023-01-01T04:30:28;195.47;;;108.17;;
18973;SDS011;9621;48.690;9.466;2023-01-01T04:32:55;189.30;;;105.73;;
18973;SDS011;9621;48.690;9.466;2023-01-01T04:35:32;180.93;;;104.03;;
18973;SDS011;9621;48.690;9.466;2023-01-01T04:38:02;176.37;;;97.47;;
18973;SDS011;9621;48.690;9.466;2023-01-01T04:40:30;168.47;;;97.47;;
18973;SDS011;9621;48.690;9.466;2023-01-01T04:42:58;152.90;;;90.73;;
18973;SDS011;9621;48.690;9.466;2023-01-01T04:45:27;163.80;;;93.70;;
18973;SDS011;9621;48.690;9.466;2023-01-01T04:47:55;155.23;;;90.10;;
18973;SDS011;9621;48.690;9.466;2023-01-01T04:50:33;154.70;;;87.50;;
18973;SDS011;9621;48.690;9.466;2023-01-01T04:53:00;154.60;;;90.30;;
18973;SDS011;9621;48.690;9.466;2023-01-01T04:55:30;166.10;;;94.67;;
18973;SDS011;9621;48.690;9.466;2023-01-01T04:58:02;170.83;;;95.13;;
18973;SDS011;9621;48.690;9.466;2023-01-01T05:00:30;167.63;;;94.00;;
18973;SDS011;9621;48.690;9.466;2023-01-01T05:03:13;171.63;;;93.37;;
18973;SDS011;9621;48.690;9.466;2023-01-01T05:05:42;160.87;;;90.63;;
18973;SDS011;9621;48.690;9.466;2023-01-01T05:08:10;152.67;;;87.40;;
18973;SDS011;9621;48.690;9.466;2023-01-01T05:10:37;168.67;;;92.53;;
18973;SDS011;9621;48.690;9.466;2023-01-01T05:13:07;167.70;;;91.80;;
18973;SDS011;9621;48.690;9.466;2023-01-01T05:15:35;175.60;;;96.97;;
18973;SDS011;9621;48.690;9.466;2023-01-01T05:18:02;161.83;;;88.20;;
18973;SDS011;9621;48.690;9.466;2023-01-01T05:20:33;150.70;;;83.00;;
18973;SDS011;9621;48.690;9.466;2023-01-01T05:23:02;174.80;;;95.67;;
18973;SDS011;9621;48.690;9.466;2023-01-01T05:25:29;168.33;;;92.37;;
18973;SDS011;9621;48.690;9.466;2023-01-01T05:27:56;145.50;;;87.80;;
18973;SDS011;9621;48.690;9.466;2023-01-01T05:30:29;140.87;;;84.03;;
18973;SDS011;9621;48.690;9.466;2023-01-01T05:32:56;138.27;;;79.00;;
18973;SDS011;9621;48.690;9.466;2023-01-01T05:35:23;127.70;;;71.07;;
18973;SDS011;9621;48.690;9.466;2023-01-01T05:37:51;121.03;;;68.53;;
18973;SDS011;9621;48.690;9.466;2023-01-01T05:40:23;136.93;;;75.80;;
18973;SDS011;9621;48.690;9.466;2023-01-01T05:42:55;127.43;;;73.57;;
18973;SDS011;9621;48.690;9.466;2023-01-01T05:45:23;125.97;;;73.20;;
18973;SDS011;9621;48.690;9.466;2023-01-01T05:47:56;124.53;;;71.00;;
18973;SDS011;9621;48.690;9.466;2023-01-01T05:50:23;133.93;;;75.23;;
18973;SDS011;9621;48.690;9.466;2023-01-01T05:52:59;126.83;;;72.40;;
18973;SDS011;9621;48.690;9.466;2023-01-01T05:55:30;125.23;;;70.57;;
18973;SDS011;9621;48.690;9.466;2023-01-01T05:58:00;128.97;;;73.97;;
18973;SDS011;9621;48.690;9.466;2023-01-01T06:00:27;120.50;;;65.13;;
18973;SDS011;9621;48.690;9.466;2023-01-01T06:02:54;123.27;;;70.10;;
18973;SDS011;9621;48.690;9.466;2023-01-01T06:05:30;136.20;;;73.67;;
18973;SDS011;9621;48.690;9.466;2023-01-01T06:08:03;128.17;;;70.27;;
18973;SDS011;9621;48.690;9.466;2023-01-01T06:10:32;123.57;;;69.83;;
18973;SDS011;9621;48.690;9.466;2023-01-01T06:13:13;125.63;;;72.43;;
18973;SDS011;9621;48.690;9.466;2023-01-01T06:15:43;121.70;;;69.53;;
18973;SDS011;9621;48.690;9.466;2023-01-01T06:18:19;124.73;;;71.23;;
18973;SDS011;9621;48.690;9.466;2023-01-01T06:20:46;127.37;;;68.83;;
18973;SDS011;9621;48.690;9.466;2023-01-01T06:23:16;120.80;;;66.93;;
18973;SDS011;9621;48.690;9.466;2023-01-01T06:25:45;117.67;;;64.63;;
18973;SDS011;9621;48.690;9.466;2023-01-01T06:28:16;114.60;;;65.77;;
18973;SDS011;9621;48.690;9.466;2023-01-01T06:30:43;124.37;;;66.83;;
18973;SDS011;9621;48.690;9.466;2023-01-01T06:33:10;114.73;;;64.47;;
18973;SDS011;9621;48.690;9.466;2023-01-01T06:35:37;113.17;;;63.27;;
18973;SDS011;9621;48.690;9.466;2023-01-01T06:38:11;115.80;;;63.80;;
18973;SDS011;9621;48.690;9.466;2023-01-01T06:40:41;113.03;;;63.93;;
18973;SDS011;9621;48.690;9.466;2023-01-01T06:43:10;113.97;;;65.13;;
18973;SDS011;9621;48.690;9.466;2023-01-01T06:45:38;101.20;;;59.27;;
18973;SDS011;9621;48.690;9.466;2023-01-01T06:48:05;115.73;;;62.93;;
18973;SDS011;9621;48.690;9.466;2023-01-01T06:50:32;113.47;;;63.37;;
18973;SDS011;9621;48.690;9.466;2023-01-01T06:52:59;110.00;;;60.10;;
18973;SDS011;9621;48.690;9.466;2023-01-01T06:55:27;103.53;;;57.57;;
18973;SDS011;9621;48.690;9.466;2023-01-01T06:57:54;109.37;;;59.20;;
18973;SDS011;9621;48.690;9.466;2023-01-01T07:00:23;100.47;;;56.07;;
18973;SDS011;9621;48.690;9.466;2023-01-01T07:02:50;100.13;;;56.87;;
18973;SDS011;9621;48.690;9.466;2023-01-01T07:05:17;107.77;;;59.97;;
18973;SDS011;9621;48.690;9.466;2023-01-01T07:07:44;94.33;;;56.07;;
18973;SDS011;9621;48.690;9.466;2023-01-01T07:10:11;92.13;;;53.37;;
18973;SDS011;9621;48.690;9.466;2023-01-01T07:12:38;103.13;;;53.17;;
18973;SDS011;9621;48.690;9.466;2023-01-01T07:15:06;97.73;;;52.93;;
18973;SDS011;9621;48.690;9.466;2023-01-01T07:17:36;105.30;;;56.03;;
18973;SDS011;9621;48.690;9.466;2023-01-01T07:20:06;109.77;;;55.93;;
18973;SDS011;9621;48.690;9.466;2023-01-01T07:22:37;97.80;;;54.57;;
18973;SDS011;9621;48.690;9.466;2023-01-01T07:25:06;100.87;;;55.63;;
18973;SDS011;9621;48.690;9.466;2023-01-01T07:27:38;101.00;;;55.43;;
18973;SDS011;9621;48.690;9.466;2023-01-01T07:30:08;103.80;;;58.03;;
18973;SDS011;9621;48.690;9.466;2023-01-01T07:32:42;103.33;;;55.00;;
18973;SDS011;9621;48.690;9.466;2023-01-01T07:35:09;102.37;;;56.07;;
18973;SDS011;9621;48.690;9.466;2023-01-01T07:37:44;101.37;;;55.00;;
18973;SDS011;9621;48.690;9.466;2023-01-01T07:40:11;91.93;;;51.73;;
18973;SDS011;9621;48.690;9.466;2023-01-01T07:42:40;97.60;;;51.40;;
18973;SDS011;9621;48.690;9.466;2023-01-01T07:45:10;92.13;;;50.30;;
18973;SDS011;9621;48.690;9.466;2023-01-01T07:47:42;93.17;;;50.63;;
18973;SDS011;9621;48.690;9.466;2023-01-01T07:50:13;88.23;;;50.50;;
18973;SDS011;9621;48.690;9.466;2023-01-01T07:52:42;86.43;;;49.50;;
18973;SDS011;9621;48.690;9.466;2023-01-01T07:55:12;80.93;;;47.47;;
18973;SDS011;9621;48.690;9.466;2023-01-01T07:57:40;88.03;;;48.90;;
18973;SDS011;9621;48.690;9.466;2023-01-01T08:00:13;83.47;;;48.70;;
18973;SDS011;9621;48.690;9.466;2023-01-01T08:02:44;88.23;;;48.17;;
18973;SDS011;9621;48.690;9.466;2023-01-01T08:05:11;81.37;;;45.70;;
18973;SDS011;9621;48.690;9.466;2023-01-01T08:07:48;82.50;;;47.07;;
18973;SDS011;9621;48.690;9.466;2023-01-01T08:10:20;74.40;;;43.60;;
18973;SDS011;9621;48.690;9.466;2023-01-01T08:12:47;80.83;;;45.43;;
18973;SDS011;9621;48.690;9.466;2023-01-01T08:15:15;79.37;;;46.07;;
18973;SDS011;9621;48.690;9.466;2023-01-01T08:17:46;75.43;;;44.93;;
18973;SDS011;9621;48.690;9.466;2023-01-01T08:20:14;81.23;;;47.73;;
18973;SDS011;9621;48.690;9.466;2023-01-01T08:22:41;80.77;;;45.50;;
18973;SDS011;9621;48.690;9.466;2023-01-01T08:25:08;80.47;;;47.17;;
18973;SDS011;9621;48.690;9.466;2023-01-01T08:27:38;99.33;;;56.60;;
18973;SDS011;9621;48.690;9.466;2023-01-01T08:30:05;87.83;;;50.43;;
18973;SDS011;9621;48.690;9.466;2023-01-01T08:32:33;90.53;;;52.70;;
18973;SDS011;9621;48.690;9.466;2023-01-01T08:35:01;95.03;;;54.73;;
18973;SDS011;9621;48.690;9.466;2023-01-01T08:37:29;85.50;;;49.23;;
18973;SDS011;9621;48.690;9.466;2023-01-01T08:39:56;82.63;;;48.30;;
18973;SDS011;9621;48.690;9.466;2023-01-01T08:42:23;75.17;;;44.20;;
18973;SDS011;9621;48.690;9.466;2023-01-01T08:44:59;64.63;;;39.37;;
18973;SDS011;9621;48.690;9.466;2023-01-01T08:47:26;66.80;;;40.17;;
18973;SDS011;9621;48.690;9.466;2023-01-01T08:49:53;71.53;;;41.60;;
18973;SDS011;9621;48.690;9.466;2023-01-01T08:52:21;69.53;;;41.50;;
18973;SDS011;9621;48.690;9.466;2023-01-01T08:54:48;79.43;;;45.13;;
18973;SDS011;9621;48.690;9.466;2023-01-01T08:57:15;85.97;;;48.30;;
18973;SDS011;9621;48.690;9.466;2023-01-01T08:59:42;83.17;;;50.53;;
18973;SDS011;9621;48.690;9.466;2023-01-01T09:02:10;82.13;;;49.83;;
18973;SDS011;9621;48.690;9.466;2023-01-01T09:04:37;89.13;;;51.20;;
18973;SDS011;9621;48.690;9.466;2023-01-01T09:07:04;86.33;;;50.93;;
18973;SDS011;9621;48.690;9.466;2023-01-01T09:09:33;89.47;;;51.30;;
18973;SDS011;9621;48.690;9.466;2023-01-01T09:12:00;87.67;;;51.70;;
18973;SDS011;9621;48.690;9.466;2023-01-01T09:14:30;91.10;;;53.13;;
18973;SDS011;9621;48.690;9.466;2023-01-01T09:16:58;77.93;;;46.27;;
18973;SDS011;9621;48.690;9.466;2023-01-01T09:19:25;66.87;;;43.17;;
18973;SDS011;9621;48.690;9.466;2023-01-01T09:21:52;73.00;;;43.63;;
18973;SDS011;9621;48.690;9.466;2023-01-01T09:24:19;64.47;;;39.47;;
18973;SDS011;9621;48.690;9.466;2023-01-01T09:26:48;64.63;;;40.27;;
18973;SDS011;9621;48.690;9.466;2023-01-01T09:29:15;75.77;;;46.70;;
18973;SDS011;9621;48.690;9.466;2023-01-01T09:31:44;66.70;;;41.23;;
18973;SDS011;9621;48.690;9.466;2023-01-01T09:34:12;65.03;;;40.20;;
18973;SDS011;9621;48.690;9.466;2023-01-01T09:36:40;67.73;;;43.03;;
18973;SDS011;9621;48.690;9.466;2023-01-01T09:39:09;60.27;;;38.47;;
18973;SDS011;9621;48.690;9.466;2023-01-01T09:47:37;65.63;;;40.30;;
18973;SDS011;9621;48.690;9.466;2023-01-01T09:50:07;69.07;;;41.80;;
18973;SDS011;9621;48.690;9.466;2023-01-01T09:52:40;62.30;;;40.77;;
18973;SDS011;9621;48.690;9.466;2023-01-01T09:55:17;63.37;;;42.00;;
18973;SDS011;9621;48.690;9.466;2023-01-01T09:57:49;60.13;;;41.13;;
18973;SDS011;9621;48.690;9.466;2023-01-01T10:00:22;67.37;;;40.40;;
18973;SDS011;9621;48.690;9.466;2023-01-01T10:02:57;62.87;;;41.43;;
18973;SDS011;9621;48.690;9.466;2023-01-01T10:05:34;65.07;;;40.03;;
18973;SDS011;9621;48.690;9.466;2023-01-01T10:08:11;59.53;;;37.33;;
18973;SDS011;9621;48.690;9.466;2023-01-01T10:10:47;53.47;;;37.43;;
18973;SDS011;9621;48.690;9.466;2023-01-01T10:13:23;53.17;;;36.00;;
18973;SDS011;9621;48.690;9.466;2023-01-01T10:16:00;50.27;;;34.80;;
18973;SDS011;9621;48.690;9.466;2023-01-01T10:18:30;51.17;;;32.55;;
18973;SDS011;9621;48.690;9.466;2023-01-01T10:21:04;46.17;;;31.02;;
18973;SDS011;9621;48.690;9.466;2023-01-01T10:23:35;45.20;;;31.42;;
18973;SDS011;9621;48.690;9.466;2023-01-01T10:26:10;45.33;;;30.85;;
18973;SDS011;9621;48.690;9.466;2023-01-01T10:28:42;43.67;;;30.25;;
18973;SDS011;9621;48.690;9.466;2023-01-01T10:31:23;40.65;;;27.42;;
18973;SDS011;9621;48.690;9.466;2023-01-01T10:33:54;42.35;;;28.27;;
18973;SDS011;9621;48.690;9.466;2023-01-01T10:36:29;39.15;;;27.98;;
18973;SDS011;9621;48.690;9.466;2023-01-01T10:38:56;49.20;;;34.55;;
18973;SDS011;9621;48.690;9.466;2023-01-01T10:41:23;52.00;;;37.45;;
18973;SDS011;9621;48.690;9.466;2023-01-01T10:43:52;37.05;;;28.77;;
18973;SDS011;9621;48.690;9.466;2023-01-01T10:46:21;39.08;;;27.77;;
18973;SDS011;9621;48.690;9.466;2023-01-01T10:49:01;34.78;;;25.60;;
18973;SDS011;9621;48.690;9.466;2023-01-01T10:51:34;31.88;;;23.25;;
18973;SDS011;9621;48.690;9.466;2023-01-01T10:54:03;32.75;;;24.50;;
18973;SDS011;9621;48.690;9.466;2023-01-01T10:56:37;31.20;;;24.55;;
18973;SDS011;9621;48.690;9.466;2023-01-01T11:02:16;29.98;;;22.00;;
18973;SDS011;9621;48.690;9.466;2023-01-01T11:05:11;28.52;;;21.75;;
18973;SDS011;9621;48.690;9.466;2023-01-01T11:07:40;28.58;;;21.58;;
18973;SDS011;9621;48.690;9.466;2023-01-01T11:10:11;28.20;;;20.42;;
18973;SDS011;9621;48.690;9.466;2023-01-01T11:12:43;26.50;;;20.67;;
18973;SDS011;9621;48.690;9.466;2023-01-01T11:15:19;24.85;;;18.80;;
18973;SDS011;9621;48.690;9.466;2023-01-01T11:17:50;24.13;;;18.15;;
18973;SDS011;9621;48.690;9.466;2023-01-01T11:20:27;25.45;;;17.25;;
18973;SDS011;9621;48.690;9.466;2023-01-01T11:22:54;24.38;;;17.67;;
18973;SDS011;9621;48.690;9.466;2023-01-01T11:25:28;25.65;;;16.83;;
18973;SDS011;9621;48.690;9.466;2023-01-01T11:28:12;20.50;;;15.90;;
18973;SDS011;9621;48.690;9.466;2023-01-01T11:30:55;24.92;;;17.67;;
18973;SDS011;9621;48.690;9.466;2023-01-01T11:33:26;23.02;;;16.40;;
18973;SDS011;9621;48.690;9.466;2023-01-01T11:36:01;22.27;;;16.08;;
18973;SDS011;9621;48.690;9.466;2023-01-01T11:38:31;21.05;;;15.45;;
18973;SDS011;9621;48.690;9.466;2023-01-01T11:41:14;18.27;;;13.90;;
18973;SDS011;9621;48.690;9.466;2023-01-01T11:43:44;18.15;;;14.23;;
18973;SDS011;9621;48.690;9.466;2023-01-01T11:46:15;17.20;;;12.80;;
18973;SDS011;9621;48.690;9.466;2023-01-01T11:48:50;13.93;;;11.18;;
18973;SDS011;9621;48.690;9.466;2023-01-01T11:51:29;14.20;;;10.90;;
18973;SDS011;9621;48.690;9.466;2023-01-01T11:54:08;15.52;;;11.00;;
18973;SDS011;9621;48.690;9.466;2023-01-01T11:56:37;15.93;;;11.88;;
18973;SDS011;9621;48.690;9.466;2023-01-01T11:59:08;20.23;;;11.82;;
18973;SDS011;9621;48.690;9.466;2023-01-01T12:01:45;17.17;;;12.20;;
18973;SDS011;9621;48.690;9.466;2023-01-01T12:04:18;16.38;;;11.20;;
18973;SDS011;9621;48.690;9.466;2023-01-01T12:06:51;12.77;;;9.82;;
18973;SDS011;9621;48.690;9.466;2023-01-01T12:09:24;13.40;;;10.32;;
18973;SDS011;9621;48.690;9.466;2023-01-01T12:11:56;13.88;;;10.70;;
18973;SDS011;9621;48.690;9.466;2023-01-01T12:14:31;15.20;;;10.38;;
18973;SDS011;9621;48.690;9.466;2023-01-01T12:17:06;16.40;;;10.68;;
18973;SDS011;9621;48.690;9.466;2023-01-01T12:19:55;13.57;;;9.85;;
18973;SDS011;9621;48.690;9.466;2023-01-01T12:22:26;14.18;;;10.15;;
18973;SDS011;9621;48.690;9.466;2023-01-01T12:24:53;15.18;;;8.82;;
18973;SDS011;9621;48.690;9.466;2023-01-01T12:27:26;15.02;;;10.15;;
18973;SDS011;9621;48.690;9.466;2023-01-01T12:30:14;13.13;;;8.90;;
18973;SDS011;9621;48.690;9.466;2023-01-01T12:35:48;11.95;;;8.05;;
18973;SDS011;9621;48.690;9.466;2023-01-01T12:38:26;10.80;;;8.10;;
18973;SDS011;9621;48.690;9.466;2023-01-01T12:41:05;11.43;;;8.45;;
18973;SDS011;9621;48.690;9.466;2023-01-01T12:43:39;10.27;;;7.70;;
18973;SDS011;9621;48.690;9.466;2023-01-01T12:46:25;10.55;;;8.13;;
18973;SDS011;9621;48.690;9.466;2023-01-01T12:49:15;12.65;;;6.95;;
18973;SDS011;9621;48.690;9.466;2023-01-01T12:51:55;9.52;;;6.20;;
18973;SDS011;9621;48.690;9.466;2023-01-01T12:54:41;8.63;;;5.93;;
18973;SDS011;9621;48.690;9.466;2023-01-01T12:57:24;7.68;;;5.82;;
18973;SDS011;9621;48.690;9.466;2023-01-01T12:59:55;9.38;;;6.30;;
18973;SDS011;9621;48.690;9.466;2023-01-01T13:02:27;7.53;;;6.05;;
18973;SDS011;9621;48.690;9.466;2023-01-01T13:04:57;9.85;;;6.28;;
18973;SDS011;9621;48.690;9.466;2023-01-01T13:07:33;8.88;;;6.00;;
18973;SDS011;9621;48.690;9.466;2023-01-01T13:10:05;8.80;;;6.28;;
18973;SDS011;9621;48.690;9.466;2023-01-01T13:12:42;9.40;;;6.82;;
18973;SDS011;9621;48.690;9.466;2023-01-01T13:18:16;10.25;;;6.88;;
18973;SDS011;9621;48.690;9.466;2023-01-01T13:20:55;12.90;;;6.82;;
18973;SDS011;9621;48.690;9.466;2023-01-01T13:23:43;9.43;;;7.10;;
18973;SDS011;9621;48.690;9.466;2023-01-01T13:32:10;12.45;;;7.55;;
18973;SDS011;9621;48.690;9.466;2023-01-01T13:37:29;15.38;;;10.25;;
18973;SDS011;9621;48.690;9.466;2023-01-01T13:43:25;15.23;;;8.38;;
18973;SDS011;9621;48.690;9.466;2023-01-01T13:45:54;16.77;;;8.40;;
18973;SDS011;9621;48.690;9.466;2023-01-01T13:48:27;12.07;;;7.75;;
18973;SDS011;9621;48.690;9.466;2023-01-01T13:51:11;11.77;;;8.13;;
18973;SDS011;9621;48.690;9.466;2023-01-01T13:54:08;12.73;;;8.35;;
18973;SDS011;9621;48.690;9.466;2023-01-01T13:56:46;12.55;;;8.30;;
18973;SDS011;9621;48.690;9.466;2023-01-01T14:02:24;14.48;;;8.07;;
18973;SDS011;9621;48.690;9.466;2023-01-01T14:04:55;11.35;;;7.60;;
18973;SDS011;9621;48.690;9.466;2023-01-01T14:07:28;12.15;;;7.10;;
18973;SDS011;9621;48.690;9.466;2023-01-01T14:10:17;11.70;;;7.57;;
18973;SDS011;9621;48.690;9.466;2023-01-01T14:12:52;10.98;;;6.75;;
18973;SDS011;9621;48.690;9.466;2023-01-01T14:15:24;11.15;;;6.45;;
18973;SDS011;9621;48.690;9.466;2023-01-01T14:17:55;12.38;;;6.93;;
18973;SDS011;9621;48.690;9.466;2023-01-01T14:20:26;10.75;;;6.35;;
18973;SDS011;9621;48.690;9.466;2023-01-01T14:22:58;10.35;;;5.80;;
18973;SDS011;9621;48.690;9.466;2023-01-01T14:25:30;9.57;;;5.43;;
18973;SDS011;9621;48.690;9.466;2023-01-01T14:27:58;9.45;;;5.45;;
18973;SDS011;9621;48.690;9.466;2023-01-01T14:30:24;8.50;;;4.93;;
18973;SDS011;9621;48.690;9.466;2023-01-01T14:32:56;9.27;;;4.60;;
18973;SDS011;9621;48.690;9.466;2023-01-01T14:35:25;6.20;;;4.50;;
18973;SDS011;9621;48.690;9.466;2023-01-01T14:37:53;7.65;;;5.07;;
18973;SDS011;9621;48.690;9.466;2023-01-01T14:40:21;9.57;;;4.80;;
18973;SDS011;9621;48.690;9.466;2023-01-01T14:42:56;9.15;;;4.88;;
18973;SDS011;9621;48.690;9.466;2023-01-01T14:45:27;10.90;;;5.57;;
18973;SDS011;9621;48.690;9.466;2023-01-01T14:47:55;8.98;;;5.20;;
18973;SDS011;9621;48.690;9.466;2023-01-01T14:50:26;9.00;;;5.15;;
18973;SDS011;9621;48.690;9.466;2023-01-01T14:52:56;12.07;;;5.25;;
18973;SDS011;9621;48.690;9.466;2023-01-01T14:55:30;6.40;;;4.03;;
18973;SDS011;9621;48.690;9.466;2023-01-01T14:58:00;6.25;;;3.97;;
18973;SDS011;9621;48.690;9.466;2023-01-01T15:00:29;10.63;;;4.63;;
18973;SDS011;9621;48.690;9.466;2023-01-01T15:03:05;7.85;;;3.83;;
18973;SDS011;9621;48.690;9.466;2023-01-01T15:05:37;6.38;;;3.97;;
18973;SDS011;9621;48.690;9.466;2023-01-01T15:08:05;9.55;;;4.18;;
18973;SDS011;9621;48.690;9.466;2023-01-01T15:10:43;6.32;;;4.00;;
18973;SDS011;9621;48.690;9.466;2023-01-01T15:13:11;8.95;;;4.30;;
18973;SDS011;9621;48.690;9.466;2023-01-01T15:15:43;8.95;;;4.47;;
18973;SDS011;9621;48.690;9.466;2023-01-01T15:21:02;7.82;;;4.15;;
18973;SDS011;9621;48.690;9.466;2023-01-01T15:23:32;8.65;;;4.93;;
18973;SDS011;9621;48.690;9.466;2023-01-01T15:26:00;8.80;;;4.70;;
18973;SDS011;9621;48.690;9.466;2023-01-01T15:28:27;8.75;;;3.92;;